sensor_id;sensor_type;location;lat;lon;timestamp;pressure;altitude;pressure_sealevel;temperature;humidity
49945;BME280;35838;49.134;9.212;2023-06-05T00:01:08;99928.00;;;19.44;63.98
49945;BME280;35838;49.134;9.212;2023-06-05T00:02:42;99930.56;;;19.46;63.66
49945;BME280;35838;49.134;9.212;2023-06-05T00:04:16;99925.34;;;19.44;63.97
49945;BME280;35838;49.134;9.212;2023-06-05T00:05:50;99929.72;;;19.45;63.91
49945;BME280;35838;49.134;9.212;2023-06-05T00:07:24;99930.00;;;19.37;63.73
49945;BME280;35838;49.134;9.212;2023-06-05T00:08:57;99924.38;;;19.24;63.71
49945;BME280;35838;49.134;9.212;2023-06-05T00:10:31;99923.75;;;19.18;65.14
49945;BME280;35838;49.134;9.212;2023-06-05T00:12:05;99930.69;;;19.20;66.21
49945;BME280;35838;49.134;9.212;2023-06-05T00:13:39;99928.84;;;19.22;65.67
49945;BME280;35838;49.134;9.212;2023-06-05T00:15:12;99923.66;;;19.21;66.29
49945;BME280;35838;49.134;9.212;2023-06-05T00:16:43;99928.09;;;19.19;65.25
49945;BME280;35838;49.134;9.212;2023-06-05T00:18:17;99931.78;;;19.15;64.97
49945;BME280;35838;49.134;9.212;2023-06-05T00:19:51;99933.72;;;19.09;65.02
49945;BME280;35838;49.134;9.212;2023-06-05T00:21:27;99933.25;;;19.00;66.52
49945;BME280;35838;49.134;9.212;2023-06-05T00:23:01;99929.00;;;18.95;66.68
49945;BME280;35838;49.134;9.212;2023-06-05T00:24:32;99930.84;;;18.92;68.75
49945;BME280;35838;49.134;9.212;2023-06-05T00:26:05;99933.81;;;18.84;68.43
49945;BME280;35838;49.134;9.212;2023-06-05T00:27:39;99929.53;;;18.82;69.03
49945;BME280;35838;49.134;9.212;2023-06-05T00:29:13;99927.66;;;18.84;69.15
49945;BME280;35838;49.134;9.212;2023-06-05T00:30:47;99931.34;;;18.79;69.72
49945;BME280;35838;49.134;9.212;2023-06-05T00:32:20;99933.34;;;18.73;68.16
49945;BME280;35838;49.134;9.212;2023-06-05T00:33:51;99924.72;;;18.69;70.17
49945;BME280;35838;49.134;9.212;2023-06-05T00:35:25;99935.47;;;18.63;70.46
49945;BME280;35838;49.134;9.212;2023-06-05T00:37:01;99930.41;;;18.57;70.25
49945;BME280;35838;49.134;9.212;2023-06-05T00:38:32;99924.38;;;18.55;72.49
49945;BME280;35838;49.134;9.212;2023-06-05T00:40:06;99933.09;;;18.55;73.95
49945;BME280;35838;49.134;9.212;2023-06-05T00:41:40;99931.63;;;18.48;71.75
49945;BME280;35838;49.134;9.212;2023-06-05T00:43:15;99930.41;;;18.57;72.54
49945;BME280;35838;49.134;9.212;2023-06-05T00:44:49;99927.00;;;18.55;73.28
49945;BME280;35838;49.134;9.212;2023-06-05T00:46:20;99935.66;;;18.57;73.75
49945;BME280;35838;49.134;9.212;2023-06-05T00:47:54;99928.09;;;18.49;73.69
49945;BME280;35838;49.134;9.212;2023-06-05T00:49:28;99927.09;;;18.52;72.40
49945;BME280;35838;49.134;9.212;2023-06-05T00:51:01;99927.34;;;18.45;73.77
49945;BME280;35838;49.134;9.212;2023-06-05T00:52:35;99931.06;;;18.38;73.94
49945;BME280;35838;49.134;9.212;2023-06-05T00:54:09;99933.94;;;18.32;74.45
49945;BME280;35838;49.134;9.212;2023-06-05T00:55:44;99925.22;;;18.31;73.71
49945;BME280;35838;49.134;9.212;2023-06-05T00:57:15;99927.88;;;18.30;74.37
49945;BME280;35838;49.134;9.212;2023-06-05T00:58:49;99933.13;;;18.30;74.18
49945;BME280;35838;49.134;9.212;2023-06-05T01:00:22;99922.69;;;18.28;74.68
49945;BME280;35838;49.134;9.212;2023-06-05T01:01:54;99921.13;;;18.23;75.50
49945;BME280;35838;49.134;9.212;2023-06-05T01:03:28;99926.38;;;18.23;76.66
49945;BME280;35838;49.134;9.212;2023-06-05T01:04:59;99927.34;;;18.20;77.17
49945;BME280;35838;49.134;9.212;2023-06-05T01:06:34;99929.91;;;18.22;76.89
49945;BME280;35838;49.134;9.212;2023-06-05T01:08:11;99923.81;;;18.21;77.26
49945;BME280;35838;49.134;9.212;2023-06-05T01:09:47;99929.13;;;18.20;77.41
49945;BME280;35838;49.134;9.212;2023-06-05T01:11:22;99921.03;;;18.26;77.98
49945;BME280;35838;49.134;9.212;2023-06-05T01:12:57;99921.03;;;18.26;78.58
49945;BME280;35838;49.134;9.212;2023-06-05T01:14:31;99924.56;;;18.25;77.97
49945;BME280;35838;49.134;9.212;2023-06-05T01:16:07;99929.81;;;18.25;76.46
49945;BME280;35838;49.134;9.212;2023-06-05T01:17:40;99928.19;;;18.21;79.10
49945;BME280;35838;49.134;9.212;2023-06-05T01:19:17;99931.69;;;18.21;79.26
49945;BME280;35838;49.134;9.212;2023-06-05T01:20:51;99925.91;;;18.11;77.58
49945;BME280;35838;49.134;9.212;2023-06-05T01:22:26;99927.91;;;18.05;78.19
49945;BME280;35838;49.134;9.212;2023-06-05T01:24:00;99928.00;;;18.01;78.50
49945;BME280;35838;49.134;9.212;2023-06-05T01:25:36;99923.84;;;17.94;79.24
49945;BME280;35838;49.134;9.212;2023-06-05T01:27:12;99925.72;;;17.91;79.43
49945;BME280;35838;49.134;9.212;2023-06-05T01:28:47;99924.06;;;17.88;79.69
49945;BME280;35838;49.134;9.212;2023-06-05T01:30:21;99916.22;;;17.86;80.22
49945;BME280;35838;49.134;9.212;2023-06-05T01:32:00;99928.28;;;17.92;80.75
49945;BME280;35838;49.134;9.212;2023-06-05T01:33:37;99911.78;;;17.89;81.35
49945;BME280;35838;49.134;9.212;2023-06-05T01:35:14;99919.88;;;17.82;80.01
49945;BME280;35838;49.134;9.212;2023-06-05T01:36:47;99922.72;;;17.75;80.15
49945;BME280;35838;49.134;9.212;2023-06-05T01:38:18;99922.69;;;17.76;81.66
49945;BME280;35838;49.134;9.212;2023-06-05T01:39:55;99917.75;;;17.67;81.59
49945;BME280;35838;49.134;9.212;2023-06-05T01:41:29;99912.38;;;17.70;81.28
49945;BME280;35838;49.134;9.212;2023-06-05T01:43:03;99923.84;;;17.67;81.86
49945;BME280;35838;49.134;9.212;2023-06-05T01:44:36;99915.91;;;17.69;81.70
49945;BME280;35838;49.134;9.212;2023-06-05T01:46:10;99916.78;;;17.69;81.71
49945;BME280;35838;49.134;9.212;2023-06-05T01:47:41;99918.50;;;17.70;81.42
49945;BME280;35838;49.134;9.212;2023-06-05T01:49:15;99916.66;;;17.74;80.56
49945;BME280;35838;49.134;9.212;2023-06-05T01:50:49;99925.34;;;17.75;82.03
49945;BME280;35838;49.134;9.212;2023-06-05T01:52:25;99927.28;;;17.69;83.04
49945;BME280;35838;49.134;9.212;2023-06-05T01:53:59;99928.88;;;17.74;81.48
49945;BME280;35838;49.134;9.212;2023-06-05T01:55:33;99915.00;;;17.70;83.04
49945;BME280;35838;49.134;9.212;2023-06-05T01:57:09;99917.91;;;17.62;82.86
49945;BME280;35838;49.134;9.212;2023-06-05T01:58:43;99927.44;;;17.65;82.95
49945;BME280;35838;49.134;9.212;2023-06-05T02:00:16;99924.81;;;17.65;82.55
49945;BME280;35838;49.134;9.212;2023-06-05T02:01:48;99921.22;;;17.67;82.02
49945;BME280;35838;49.134;9.212;2023-06-05T02:03:22;99925.56;;;17.68;82.59
49945;BME280;35838;49.134;9.212;2023-06-05T02:04:53;99923.69;;;17.45;82.99
49945;BME280;35838;49.134;9.212;2023-06-05T02:06:31;99921.00;;;17.47;84.77
49945;BME280;35838;49.134;9.212;2023-06-05T02:08:11;99924.81;;;17.38;84.05
49945;BME280;35838;49.134;9.212;2023-06-05T02:09:49;99924.06;;;17.33;84.45
49945;BME280;35838;49.134;9.212;2023-06-05T02:11:26;99924.28;;;17.27;83.74
49945;BME280;35838;49.134;9.212;2023-06-05T02:12:59;99917.59;;;17.16;84.34
49945;BME280;35838;49.134;9.212;2023-06-05T02:14:34;99923.09;;;17.09;85.97
49945;BME280;35838;49.134;9.212;2023-06-05T02:16:09;99922.91;;;17.15;88.48
49945;BME280;35838;49.134;9.212;2023-06-05T02:17:40;99921.25;;;17.12;88.40
49945;BME280;35838;49.134;9.212;2023-06-05T02:19:15;99922.75;;;17.19;87.55
49945;BME280;35838;49.134;9.212;2023-06-05T02:20:52;99925.16;;;17.27;87.76
49945;BME280;35838;49.134;9.212;2023-06-05T02:22:23;99922.69;;;17.21;86.53
49945;BME280;35838;49.134;9.212;2023-06-05T02:23:57;99919.88;;;16.99;85.84
49945;BME280;35838;49.134;9.212;2023-06-05T02:25:30;99917.47;;;16.91;87.27
49945;BME280;35838;49.134;9.212;2023-06-05T02:27:07;99924.66;;;16.84;87.76
49945;BME280;35838;49.134;9.212;2023-06-05T02:28:41;99923.06;;;16.79;87.84
49945;BME280;35838;49.134;9.212;2023-06-05T02:30:14;99922.38;;;16.72;87.65
49945;BME280;35838;49.134;9.212;2023-06-05T02:31:45;99919.59;;;16.78;88.23
49945;BME280;35838;49.134;9.212;2023-06-05T02:33:19;99923.66;;;16.88;89.16
49945;BME280;35838;49.134;9.212;2023-06-05T02:38:11;99924.56;;;16.57;88.06
49945;BME280;35838;49.134;9.212;2023-06-05T02:39:45;99924.75;;;16.51;89.82
49945;BME280;35838;49.134;9.212;2023-06-05T02:41:19;99922.84;;;16.56;90.01
49945;BME280;35838;49.134;9.212;2023-06-05T02:42:55;99924.75;;;16.51;90.15
49945;BME280;35838;49.134;9.212;2023-06-05T02:44:29;99925.00;;;16.42;90.18
49945;BME280;35838;49.134;9.212;2023-06-05T02:46:04;99933.81;;;16.39;90.37
49945;BME280;35838;49.134;9.212;2023-06-05T02:47:38;99931.31;;;16.35;91.31
49945;BME280;35838;49.134;9.212;2023-06-05T02:49:11;99930.75;;;16.23;91.56
49945;BME280;35838;49.134;9.212;2023-06-05T02:50:45;99926.06;;;16.35;95.09
49945;BME280;35838;49.134;9.212;2023-06-05T02:52:19;99927.63;;;16.40;94.06
49945;BME280;35838;49.134;9.212;2023-06-05T02:53:52;99924.13;;;16.41;93.48
49945;BME280;35838;49.134;9.212;2023-06-05T02:55:26;99921.31;;;16.49;92.81
49945;BME280;35838;49.134;9.212;2023-06-05T02:57:00;99927.13;;;16.59;91.02
49945;BME280;35838;49.134;9.212;2023-06-05T02:58:34;99919.31;;;16.57;91.74
49945;BME280;35838;49.134;9.212;2023-06-05T03:00:08;99919.00;;;16.68;90.73
49945;BME280;35838;49.134;9.212;2023-06-05T03:01:39;99923.53;;;16.63;89.58
49945;BME280;35838;49.134;9.212;2023-06-05T03:03:13;99928.91;;;16.58;90.50
49945;BME280;35838;49.134;9.212;2023-06-05T03:04:47;99931.53;;;16.58;90.93
49945;BME280;35838;49.134;9.212;2023-06-05T03:06:23;99935.75;;;16.63;90.56
49945;BME280;35838;49.134;9.212;2023-06-05T03:07:58;99927.03;;;16.62;90.09
49945;BME280;35838;49.134;9.212;2023-06-05T03:09:32;99931.53;;;16.58;90.53
49945;BME280;35838;49.134;9.212;2023-06-05T03:11:03;99933.31;;;16.56;91.36
49945;BME280;35838;49.134;9.212;2023-06-05T03:12:37;99933.41;;;16.53;91.03
49945;BME280;35838;49.134;9.212;2023-06-05T03:14:13;99929.88;;;16.54;90.35
49945;BME280;35838;49.134;9.212;2023-06-05T03:15:47;99935.09;;;16.56;90.30
49945;BME280;35838;49.134;9.212;2023-06-05T03:17:23;99932.41;;;16.57;91.42
49945;BME280;35838;49.134;9.212;2023-06-05T03:18:58;99934.59;;;16.41;92.18
49945;BME280;35838;49.134;9.212;2023-06-05T03:20:32;99934.28;;;16.54;91.92
49945;BME280;35838;49.134;9.212;2023-06-05T03:22:06;99923.03;;;16.50;91.36
49945;BME280;35838;49.134;9.212;2023-06-05T03:23:40;99930.13;;;16.45;91.35
49945;BME280;35838;49.134;9.212;2023-06-05T03:25:11;99924.94;;;16.43;91.32
49945;BME280;35838;49.134;9.212;2023-06-05T03:26:45;99928.41;;;16.44;92.36
49945;BME280;35838;49.134;9.212;2023-06-05T03:28:19;99925.66;;;16.49;92.14
49945;BME280;35838;49.134;9.212;2023-06-05T03:29:55;99931.19;;;16.39;92.75
49945;BME280;35838;49.134;9.212;2023-06-05T03:31:27;99925.78;;;16.44;92.99
49945;BME280;35838;49.134;9.212;2023-06-05T03:33:00;99931.09;;;16.42;92.97
49945;BME280;35838;49.134;9.212;2023-06-05T03:34:34;99931.56;;;16.25;94.04
49945;BME280;35838;49.134;9.212;2023-06-05T03:36:08;99931.44;;;16.30;94.39
49945;BME280;35838;49.134;9.212;2023-06-05T03:37:42;99929.66;;;16.31;93.80
49945;BME280;35838;49.134;9.212;2023-06-05T03:39:16;99929.88;;;16.23;94.01
49945;BME280;35838;49.134;9.212;2023-06-05T03:40:50;99934.19;;;16.25;94.98
49945;BME280;35838;49.134;9.212;2023-06-05T03:42:23;99934.38;;;16.18;96.28
49945;BME280;35838;49.134;9.212;2023-06-05T03:43:57;99937.72;;;16.23;95.61
49945;BME280;35838;49.134;9.212;2023-06-05T03:45:34;99933.66;;;16.12;96.03
49945;BME280;35838;49.134;9.212;2023-06-05T03:47:09;99936.22;;;16.14;97.41
49945;BME280;35838;49.134;9.212;2023-06-05T03:48:45;99937.19;;;16.10;98.58
49945;BME280;35838;49.134;9.212;2023-06-05T03:50:19;99944.16;;;16.11;98.73
49945;BME280;35838;49.134;9.212;2023-06-05T03:51:54;99938.13;;;16.07;98.46
49945;BME280;35838;49.134;9.212;2023-06-05T03:53:31;99946.16;;;16.01;99.63
49945;BME280;35838;49.134;9.212;2023-06-05T03:55:05;99941.94;;;15.95;100.00
49945;BME280;35838;49.134;9.212;2023-06-05T03:56:40;99951.81;;;15.84;100.00
49945;BME280;35838;49.134;9.212;2023-06-05T03:58:20;99951.56;;;15.93;100.00
49945;BME280;35838;49.134;9.212;2023-06-05T03:59:53;99952.63;;;15.86;100.00
49945;BME280;35838;49.134;9.212;2023-06-05T04:01:30;99950.69;;;15.94;100.00
49945;BME280;35838;49.134;9.212;2023-06-05T04:03:01;99948.34;;;15.82;100.00
49945;BME280;35838;49.134;9.212;2023-06-05T04:04:34;99951.63;;;15.92;100.00
49945;BME280;35838;49.134;9.212;2023-06-05T04:06:08;99954.41;;;15.86;100.00
49945;BME280;35838;49.134;9.212;2023-06-05T04:07:42;99949.06;;;15.89;100.00
49945;BME280;35838;49.134;9.212;2023-06-05T04:09:16;99955.19;;;15.89;100.00
49945;BME280;35838;49.134;9.212;2023-06-05T04:10:49;99955.38;;;15.80;100.00
49945;BME280;35838;49.134;9.212;2023-06-05T04:12:23;99959.06;;;15.71;100.00
49945;BME280;35838;49.134;9.212;2023-06-05T04:13:56;99956.16;;;15.85;100.00
49945;BME280;35838;49.134;9.212;2023-06-05T04:15:27;99957.09;;;15.81;100.00
49945;BME280;35838;49.134;9.212;2023-06-05T04:17:04;99962.50;;;15.73;100.00
49945;BME280;35838;49.134;9.212;2023-06-05T04:18:37;99966.78;;;15.77;100.00
49945;BME280;35838;49.134;9.212;2023-06-05T04:20:11;99965.19;;;15.72;100.00
49945;BME280;35838;49.134;9.212;2023-06-05T04:21:46;99966.63;;;15.85;100.00
49945;BME280;35838;49.134;9.212;2023-06-05T04:23:19;99963.94;;;15.88;100.00
49945;BME280;35838;49.134;9.212;2023-06-05T04:24:53;99962.22;;;15.87;100.00
49945;BME280;35838;49.134;9.212;2023-06-05T04:26:27;99963.13;;;15.83;100.00
49945;BME280;35838;49.134;9.212;2023-06-05T04:28:00;99972.63;;;15.89;100.00
49945;BME280;35838;49.134;9.212;2023-06-05T04:29:35;99967.38;;;15.90;100.00
49945;BME280;35838;49.134;9.212;2023-06-05T04:31:08;99966.75;;;15.79;100.00
49945;BME280;35838;49.134;9.212;2023-06-05T04:32:45;99970.06;;;15.87;100.00
49945;BME280;35838;49.134;9.212;2023-06-05T04:34:24;99975.22;;;15.90;100.00
49945;BME280;35838;49.134;9.212;2023-06-05T04:35:58;99961.25;;;15.90;100.00
49945;BME280;35838;49.134;9.212;2023-06-05T04:37:31;99968.09;;;15.95;100.00
49945;BME280;35838;49.134;9.212;2023-06-05T04:39:03;99969.06;;;15.93;100.00
49945;BME280;35838;49.134;9.212;2023-06-05T04:40:41;99963.81;;;15.93;100.00
49945;BME280;35838;49.134;9.212;2023-06-05T04:42:15;99963.78;;;15.94;100.00
49945;BME280;35838;49.134;9.212;2023-06-05T04:43:48;99960.19;;;15.97;100.00
49945;BME280;35838;49.134;9.212;2023-06-05T04:45:22;99962.63;;;16.05;100.00
49945;BME280;35838;49.134;9.212;2023-06-05T04:46:56;99962.72;;;16.02;100.00
49945;BME280;35838;49.134;9.212;2023-06-05T04:48:33;99968.78;;;16.04;100.00
49945;BME280;35838;49.134;9.212;2023-06-05T04:50:08;99971.38;;;16.04;100.00
49945;BME280;35838;49.134;9.212;2023-06-05T04:51:41;99969.53;;;16.07;99.48
49945;BME280;35838;49.134;9.212;2023-06-05T04:53:16;99972.94;;;16.11;99.34
49945;BME280;35838;49.134;9.212;2023-06-05T04:54:50;99969.34;;;16.15;100.00
49945;BME280;35838;49.134;9.212;2023-06-05T04:56:24;99970.31;;;16.12;100.00
49945;BME280;35838;49.134;9.212;2023-06-05T04:57:57;99964.25;;;16.10;98.16
49945;BME280;35838;49.134;9.212;2023-06-05T04:59:32;99971.09;;;16.16;97.17
49945;BME280;35838;49.134;9.212;2023-06-05T05:01:06;99969.25;;;16.18;96.85
49945;BME280;35838;49.134;9.212;2023-06-05T05:02:40;99968.19;;;16.27;96.90
49945;BME280;35838;49.134;9.212;2023-06-05T05:04:16;99967.88;;;16.38;96.66
49945;BME280;35838;49.134;9.212;2023-06-05T05:05:50;99967.69;;;16.45;95.75
49945;BME280;35838;49.134;9.212;2023-06-05T05:07:23;99965.97;;;16.44;95.08
49945;BME280;35838;49.134;9.212;2023-06-05T05:08:59;99974.59;;;16.48;94.32
49945;BME280;35838;49.134;9.212;2023-06-05T05:10:34;99964.94;;;16.50;94.69
49945;BME280;35838;49.134;9.212;2023-06-05T05:12:08;99965.75;;;16.52;95.18
49945;BME280;35838;49.134;9.212;2023-06-05T05:13:42;99969.16;;;16.54;94.82
49945;BME280;35838;49.134;9.212;2023-06-05T05:15:16;99968.28;;;16.55;94.46
49945;BME280;35838;49.134;9.212;2023-06-05T05:16:50;99968.19;;;16.58;92.58
49945;BME280;35838;49.134;9.212;2023-06-05T05:18:21;99968.19;;;16.58;91.71
49945;BME280;35838;49.134;9.212;2023-06-05T05:19:57;99963.53;;;16.70;92.42
49945;BME280;35838;49.134;9.212;2023-06-05T05:21:31;99960.94;;;16.68;93.11
49945;BME280;35838;49.134;9.212;2023-06-05T05:23:05;99967.69;;;16.75;90.14
49945;BME280;35838;49.134;9.212;2023-06-05T05:24:39;99965.13;;;16.74;91.76
49945;BME280;35838;49.134;9.212;2023-06-05T05:26:13;99965.81;;;16.81;92.23
49945;BME280;35838;49.134;9.212;2023-06-05T05:27:47;99975.41;;;16.82;90.58
49945;BME280;35838;49.134;9.212;2023-06-05T05:29:20;99970.19;;;16.80;90.39
49945;BME280;35838;49.134;9.212;2023-06-05T05:30:54;99972.81;;;16.80;91.79
49945;BME280;35838;49.134;9.212;2023-06-05T05:32:29;99970.97;;;16.84;91.35
49945;BME280;35838;49.134;9.212;2023-06-05T05:34:03;99970.59;;;16.98;90.36
49945;BME280;35838;49.134;9.212;2023-06-05T05:35:39;99975.16;;;16.91;88.65
49945;BME280;35838;49.134;9.212;2023-06-05T05:37:12;99973.19;;;16.99;87.33
49945;BME280;35838;49.134;9.212;2023-06-05T05:38:46;99967.81;;;17.04;88.15
49945;BME280;35838;49.134;9.212;2023-06-05T05:40:20;99979.22;;;17.01;89.67
49945;BME280;35838;49.134;9.212;2023-06-05T05:41:55;99975.63;;;17.05;90.58
49945;BME280;35838;49.134;9.212;2023-06-05T05:43:30;99976.47;;;17.06;89.23
49945;BME280;35838;49.134;9.212;2023-06-05T05:45:04;99976.53;;;17.04;89.03
49945;BME280;35838;49.134;9.212;2023-06-05T05:46:38;99974.78;;;17.05;88.26
49945;BME280;35838;49.134;9.212;2023-06-05T05:48:11;99982.66;;;17.05;88.50
49945;BME280;35838;49.134;9.212;2023-06-05T05:49:45;99985.91;;;17.13;88.78
49945;BME280;35838;49.134;9.212;2023-06-05T05:51:21;99977.88;;;17.18;88.96
49945;BME280;35838;49.134;9.212;2023-06-05T05:52:55;99981.22;;;17.23;88.02
49945;BME280;35838;49.134;9.212;2023-06-05T05:54:29;99976.72;;;17.27;87.29
49945;BME280;35838;49.134;9.212;2023-06-05T05:56:03;99984.66;;;17.25;85.57
49945;BME280;35838;49.134;9.212;2023-06-05T05:57:36;99982.56;;;17.36;85.83
49945;BME280;35838;49.134;9.212;2023-06-05T05:59:10;99973.91;;;17.33;86.73
49945;BME280;35838;49.134;9.212;2023-06-05T06:00:44;99970.22;;;17.40;85.71
49945;BME280;35838;49.134;9.212;2023-06-05T06:02:18;99979.03;;;17.37;84.96
49945;BME280;35838;49.134;9.212;2023-06-05T06:03:52;99976.31;;;17.41;85.45
49945;BME280;35838;49.134;9.212;2023-06-05T06:05:26;99974.44;;;17.44;86.67
49945;BME280;35838;49.134;9.212;2023-06-05T06:07:03;99971.88;;;17.43;86.04
49945;BME280;35838;49.134;9.212;2023-06-05T06:08:36;99971.75;;;17.46;86.44
49945;BME280;35838;49.134;9.212;2023-06-05T06:10:10;99972.09;;;17.35;82.66
49945;BME280;35838;49.134;9.212;2023-06-05T06:11:44;99974.72;;;17.35;82.06
49945;BME280;35838;49.134;9.212;2023-06-05T06:13:19;99978.78;;;17.45;83.60
49945;BME280;35838;49.134;9.212;2023-06-05T06:14:52;99975.22;;;17.48;85.63
49945;BME280;35838;49.134;9.212;2023-06-05T06:16:26;99970.63;;;17.54;85.75
49945;BME280;35838;49.134;9.212;2023-06-05T06:18:00;99970.63;;;17.54;86.30
49945;BME280;35838;49.134;9.212;2023-06-05T06:19:34;99970.72;;;17.51;86.18
49945;BME280;35838;49.134;9.212;2023-06-05T06:21:08;99967.84;;;17.59;84.62
49945;BME280;35838;49.134;9.212;2023-06-05T06:22:44;99978.22;;;17.64;87.83
49945;BME280;35838;49.134;9.212;2023-06-05T06:24:18;99981.59;;;17.67;86.40
49945;BME280;35838;49.134;9.212;2023-06-05T06:25:53;99975.28;;;17.73;87.84
49945;BME280;35838;49.134;9.212;2023-06-05T06:27:27;99967.19;;;17.79;87.03
49945;BME280;35838;49.134;9.212;2023-06-05T06:29:01;99974.13;;;17.82;87.83
49945;BME280;35838;49.134;9.212;2023-06-05T06:30:34;99975.53;;;17.92;86.11
49945;BME280;35838;49.134;9.212;2023-06-05T06:32:08;99972.16;;;17.89;87.08
49945;BME280;35838;49.134;9.212;2023-06-05T06:33:42;99973.06;;;17.88;87.24
49945;BME280;35838;49.134;9.212;2023-06-05T06:35:15;99972.97;;;17.91;87.64
49945;BME280;35838;49.134;9.212;2023-06-05T06:36:50;99966.53;;;18.01;87.37
49945;BME280;35838;49.134;9.212;2023-06-05T06:38:26;99973.38;;;18.05;85.63
49945;BME280;35838;49.134;9.212;2023-06-05T06:40:02;99964.75;;;18.01;86.52
49945;BME280;35838;49.134;9.212;2023-06-05T06:41:39;99962.94;;;18.04;86.41
49945;BME280;35838;49.134;9.212;2023-06-05T06:43:13;99972.47;;;18.06;82.80
49945;BME280;35838;49.134;9.212;2023-06-05T06:44:47;99968.84;;;18.10;81.92
49945;BME280;35838;49.134;9.212;2023-06-05T06:46:26;99973.72;;;18.21;83.33
49945;BME280;35838;49.134;9.212;2023-06-05T06:47:59;99968.31;;;18.26;83.36
49945;BME280;35838;49.134;9.212;2023-06-05T06:49:33;99976.03;;;18.30;83.97
49945;BME280;35838;49.134;9.212;2023-06-05T06:51:07;99972.38;;;18.35;83.05
49945;BME280;35838;49.134;9.212;2023-06-05T06:52:41;99976.69;;;18.37;81.94
49945;BME280;35838;49.134;9.212;2023-06-05T06:54:17;99972.28;;;18.38;83.87
49945;BME280;35838;49.134;9.212;2023-06-05T06:55:52;99972.78;;;18.47;82.45
49945;BME280;35838;49.134;9.212;2023-06-05T06:57:26;99974.56;;;18.47;84.69
49945;BME280;35838;49.134;9.212;2023-06-05T06:59:00;99974.50;;;18.48;81.92
49945;BME280;35838;49.134;9.212;2023-06-05T07:00:34;99977.72;;;18.57;82.50
49945;BME280;35838;49.134;9.212;2023-06-05T07:02:08;99970.81;;;18.54;85.29
49945;BME280;35838;49.134;9.212;2023-06-05T07:03:41;99972.09;;;18.42;83.29
49945;BME280;35838;49.134;9.212;2023-06-05T07:05:15;99974.50;;;18.48;84.10
49945;BME280;35838;49.134;9.212;2023-06-05T07:06:50;99970.94;;;18.51;85.92
49945;BME280;35838;49.134;9.212;2023-06-05T07:08:23;99973.28;;;18.59;84.30
49945;BME280;35838;49.134;9.212;2023-06-05T07:10:00;99967.19;;;18.57;84.25
49945;BME280;35838;49.134;9.212;2023-06-05T07:11:33;99965.63;;;18.53;81.75
49945;BME280;35838;49.134;9.212;2023-06-05T07:13:07;99977.72;;;18.57;82.75
49945;BME280;35838;49.134;9.212;2023-06-05T07:14:41;99972.28;;;18.61;83.36
49945;BME280;35838;49.134;9.212;2023-06-05T07:16:14;99980.34;;;18.57;83.90
49945;BME280;35838;49.134;9.212;2023-06-05T07:17:48;99970.63;;;18.59;85.28
49945;BME280;35838;49.134;9.212;2023-06-05T07:19:21;99974.75;;;18.66;86.43
49945;BME280;35838;49.134;9.212;2023-06-05T07:20:55;99974.66;;;18.69;82.54
49945;BME280;35838;49.134;9.212;2023-06-05T07:22:29;99974.88;;;18.63;84.63
49945;BME280;35838;49.134;9.212;2023-06-05T07:24:02;99970.94;;;18.75;85.43
49945;BME280;35838;49.134;9.212;2023-06-05T07:25:39;99965.53;;;18.79;84.55
49945;BME280;35838;49.134;9.212;2023-06-05T07:27:12;99969.69;;;18.85;84.92
49945;BME280;35838;49.134;9.212;2023-06-05T07:28:46;99967.66;;;18.92;86.52
49945;BME280;35838;49.134;9.212;2023-06-05T07:30:20;99969.63;;;18.87;81.28
49945;BME280;35838;49.134;9.212;2023-06-05T07:31:54;99968.25;;;18.76;82.40
49945;BME280;35838;49.134;9.212;2023-06-05T07:33:27;99969.22;;;18.74;83.75
49945;BME280;35838;49.134;9.212;2023-06-05T07:35:01;99963.63;;;18.83;84.28
49945;BME280;35838;49.134;9.212;2023-06-05T07:36:35;99965.09;;;18.90;87.50
49945;BME280;35838;49.134;9.212;2023-06-05T07:38:09;99972.84;;;18.95;85.12
49945;BME280;35838;49.134;9.212;2023-06-05T07:39:43;99967.25;;;19.04;85.54
49945;BME280;35838;49.134;9.212;2023-06-05T07:41:20;99966.28;;;19.07;85.97
49945;BME280;35838;49.134;9.212;2023-06-05T07:42:54;99967.72;;;19.16;86.04
49945;BME280;35838;49.134;9.212;2023-06-05T07:44:27;99966.78;;;19.17;85.81
49945;BME280;35838;49.134;9.212;2023-06-05T07:46:01;99969.25;;;19.21;85.28
49945;BME280;35838;49.134;9.212;2023-06-05T07:47:35;99962.00;;;19.26;86.35
49945;BME280;35838;49.134;9.212;2023-06-05T07:49:09;99960.13;;;19.30;90.23
49945;BME280;35838;49.134;9.212;2023-06-05T07:50:42;99960.59;;;19.40;90.35
49945;BME280;35838;49.134;9.212;2023-06-05T07:52:16;99956.50;;;19.33;83.75
49945;BME280;35838;49.134;9.212;2023-06-05T07:53:49;99960.78;;;19.35;83.15
49945;BME280;35838;49.134;9.212;2023-06-05T07:55:23;99959.50;;;19.46;83.16
49945;BME280;35838;49.134;9.212;2023-06-05T07:56:59;99957.00;;;19.42;84.70
49945;BME280;35838;49.134;9.212;2023-06-05T07:58:34;99961.19;;;19.26;87.33
49945;BME280;35838;49.134;9.212;2023-06-05T08:00:10;99956.50;;;19.33;87.26
49945;BME280;35838;49.134;9.212;2023-06-05T08:01:44;99947.22;;;19.46;87.42
49945;BME280;35838;49.134;9.212;2023-06-05T08:03:19;99953.88;;;19.55;89.36
49945;BME280;35838;49.134;9.212;2023-06-05T08:04:53;99952.75;;;19.61;86.77
49945;BME280;35838;49.134;9.212;2023-06-05T08:06:27;99956.81;;;19.69;89.88
49945;BME280;35838;49.134;9.212;2023-06-05T08:07:58;99950.09;;;19.83;89.95
49945;BME280;35838;49.134;9.212;2023-06-05T08:09:32;99946.28;;;19.92;86.20
49945;BME280;35838;49.134;9.212;2023-06-05T08:11:07;99950.47;;;19.96;88.70
49945;BME280;35838;49.134;9.212;2023-06-05T08:12:43;99942.50;;;19.97;88.82
49945;BME280;35838;49.134;9.212;2023-06-05T08:14:16;99938.22;;;19.95;85.88
49945;BME280;35838;49.134;9.212;2023-06-05T08:15:50;99939.56;;;19.83;86.54
49945;BME280;35838;49.134;9.212;2023-06-05T08:17:24;99944.94;;;20.02;89.44
49945;BME280;35838;49.134;9.212;2023-06-05T08:18:57;99937.97;;;20.01;88.89
49945;BME280;35838;49.134;9.212;2023-06-05T08:20:31;99940.78;;;20.17;87.57
49945;BME280;35838;49.134;9.212;2023-06-05T08:22:05;99936.03;;;20.25;89.18